Date,TemperatureHighF,TemperatureAvgF,TemperatureLowF,DewpointHighF,DewpointAvgF,DewpointLowF,HumidityHigh,HumidityAvg,HumidityLow,PressureMaxIn,PressureMinIn,WindSpeedMaxMPH,WindSpeedAvgMPH,GustSpeedMaxMPH,PrecipitationSumIn
2013-9-1,84.0,74.5,68.0,65.0,62.9,60.0,86,68,49,0.00,40.00,9,2,0,0.00
2013-9-2,84.0,71.8,63.0,65.0,62.8,59.0,88,74,50,0.00,40.00,7,3,0,0.00
2013-9-3,87.0,74.5,63.0,64.0,61.8,59.0,86,66,42,0.00,40.00,8,2,0,0.00
2013-9-4,85.0,71.8,62.0,61.0,59.5,57.0,86,67,42,0.00,40.00,6,2,0,0.00
2013-9-5,87.0,71.7,60.0,61.0,58.4,56.0,87,66,38,0.00,40.00,7,3,0,0.00
2013-9-6,88.0,72.3,59.0,60.0,57.9,54.0,85,63,36,0.00,40.00,5,2,0,0.00
2013-9-7,84.0,67.1,57.0,60.0,54.2,-99.9,85,67,40,0.00,40.00,6,2,0,0.00
2013-9-8,76.0,65.7,59.0,59.0,56.9,55.0,89,74,49,0.00,40.00,9,3,0,0.00
2013-9-9,71.0,62.8,57.0,59.0,56.5,54.0,90,80,59,0.00,40.00,7,3,0,0.00
2013-9-10,74.0,65.9,59.0,57.0,56.7,55.0,86,73,54,0.00,40.00,9,3,0,0.00
2013-9-11,75.0,64.8,57.0,58.0,56.0,53.0,87,74,53,0.00,40.00,5,2,0,0.00
2013-9-12,80.0,65.9,54.0,58.0,55.0,51.0,89,70,44,0.00,40.00,8,3,0,0.00
2013-9-13,80.0,66.3,54.0,59.0,54.9,50.0,87,68,44,0.00,40.00,11,3,0,0.00
2013-9-14,81.0,66.9,56.0,58.0,53.2,-99.9,87,65,43,0.00,40.00,7,3,0,0.00
2013-9-15,79.0,67.2,55.0,59.0,55.7,52.0,88,69,46,0.00,40.00,5,2,0,0.00
2013-9-16,79.0,65.3,55.0,59.0,55.3,51.0,88,71,47,0.00,40.00,4,2,0,0.00
2013-9-17,75.0,62.5,52.0,58.0,54.2,49.0,91,75,49,0.00,40.00,7,3,0,0.00
2013-9-18,65.0,57.2,54.0,58.0,52.9,51.0,88,85,78,0.00,40.00,2,1,0,0.00
2013-9-19,76.0,63.7,53.0,59.0,56.0,50.0,90,77,54,0.00,40.00,7,3,0,0.00
2013-9-20,71.0,65.9,63.0,59.0,58.0,57.0,84,75,66,0.00,40.00,6,2,0,0.00
2013-9-21,74.0,64.5,59.0,60.0,55.1,-99.9,86,74,51,0.00,40.00,10,3,0,0.00
2013-9-22,79.0,64.5,53.0,56.0,51.5,43.0,89,66,30,0.00,40.00,7,3,0,0.00
2013-9-23,86.0,67.5,50.0,52.0,46.4,42.0,75,51,23,0.00,40.00,9,3,0,0.00
2013-9-24,85.0,67.2,55.0,58.0,47.2,41.0,80,51,24,0.00,40.00,8,3,0,0.00
2013-9-25,74.0,62.7,52.0,56.0,51.0,47.0,85,67,43,0.00,40.00,8,3,0,0.00
2013-9-26,74.0,62.2,54.0,53.0,48.5,40.0,84,64,29,0.00,40.00,10,3,0,0.00
2013-9-27,84.0,64.6,47.0,47.0,36.0,26.0,83,43,12,0.00,40.00,11,3,0,0.00
2013-9-28,84.0,65.2,50.0,45.0,33.2,-99.9,56,35,14,0.00,40.00,7,3,0,0.00
2013-9-29,81.0,63.8,47.0,52.0,40.9,33.0,73,46,20,0.00,40.00,7,2,0,0.00
2013-9-30,80.0,64.7,49.0,56.0,43.1,-99.9,74,53,27,0.00,40.00,7,3,0,0.00